createdAt,value
2022-09-23T00:01:01.205Z,95.70
2022-09-23T00:06:07.160Z,95.70
2022-09-23T00:11:14.372Z,95.60
2022-09-23T00:16:20.931Z,95.70
2022-09-23T00:21:25.183Z,95.70
2022-09-23T00:26:30.434Z,95.80
2022-09-23T00:31:34.231Z,95.80
2022-09-23T00:36:38.688Z,95.70
2022-09-23T00:41:43.926Z,95.80
2022-09-23T00:46:47.622Z,95.70
2022-09-23T00:51:55.275Z,95.70
2022-09-23T00:57:01.804Z,95.70
2022-09-23T01:02:06.995Z,95.80
2022-09-23T01:07:10.951Z,95.80
2022-09-23T01:12:38.440Z,95.80
2022-09-23T01:17:50.029Z,95.80
2022-09-23T01:23:06.930Z,95.90
2022-09-23T01:28:21.879Z,95.90
2022-09-23T01:33:34.642Z,96.00
2022-09-23T01:38:45.026Z,96.10
2022-09-23T01:43:55.777Z,96.10
2022-09-23T01:49:08.277Z,96.20
2022-09-23T01:54:17.049Z,96.30
2022-09-23T01:59:26.018Z,96.40
2022-09-23T02:04:39.554Z,96.50
2022-09-23T02:09:47.716Z,96.50
2022-09-23T02:14:57.634Z,96.60
2022-09-23T02:20:06.733Z,96.70
2022-09-23T02:25:12.558Z,96.60
2022-09-23T02:30:19.646Z,96.60
2022-09-23T02:35:33.024Z,96.90
2022-09-23T02:40:41.835Z,96.70
2022-09-23T02:45:45.961Z,96.60
2022-09-23T02:50:51.003Z,96.60
2022-09-23T02:55:54.630Z,96.70
2022-09-23T03:01:05.073Z,96.70
2022-09-23T03:06:21.075Z,96.70
2022-09-23T03:11:24.823Z,96.80
2022-09-23T03:16:35.531Z,96.80
2022-09-23T03:21:45.215Z,96.90
2022-09-23T03:26:50.000Z,96.80
2022-09-23T03:31:54.941Z,96.80
2022-09-23T03:37:07.511Z,96.70
2022-09-23T03:42:16.902Z,96.70
2022-09-23T03:47:21.160Z,97.00
2022-09-23T03:52:27.194Z,96.80
2022-09-23T03:57:31.892Z,96.90
2022-09-23T04:02:35.655Z,96.90
2022-09-23T04:07:41.152Z,97.00
2022-09-23T04:12:44.853Z,97.10
2022-09-23T04:17:48.465Z,97.20
2022-09-23T04:22:53.469Z,97.00
2022-09-23T04:27:57.286Z,97.20
2022-09-23T04:33:01.037Z,97.30
2022-09-23T04:38:06.294Z,97.20
2022-09-23T04:43:13.454Z,97.50
2022-09-23T04:48:17.634Z,97.30
2022-09-23T04:53:22.807Z,97.40
2022-09-23T04:58:26.657Z,97.50
2022-09-23T05:03:32.113Z,97.40
2022-09-23T05:08:37.529Z,97.40
2022-09-23T05:13:41.606Z,97.40
2022-09-23T05:18:46.846Z,97.40
2022-09-23T05:23:55.276Z,97.50
2022-09-23T05:29:00.342Z,97.50
2022-09-23T05:34:05.556Z,97.30
2022-09-23T05:39:10.653Z,97.50
2022-09-23T05:44:16.761Z,97.60
2022-09-23T05:49:29.548Z,97.40
2022-09-23T05:54:42.921Z,97.30
2022-09-23T05:59:47.773Z,97.40
2022-09-23T06:04:51.536Z,97.30
2022-09-23T06:09:56.545Z,97.50
2022-09-23T06:15:02.080Z,97.40
2022-09-23T06:20:06.826Z,97.60
2022-09-23T06:25:12.623Z,97.60
2022-09-23T06:30:17.245Z,97.50
2022-09-23T06:35:27.216Z,97.50
2022-09-23T06:40:33.560Z,97.50
2022-09-23T06:45:37.375Z,97.70
2022-09-23T06:50:41.430Z,97.70
2022-09-23T06:55:49.100Z,97.80
2022-09-23T07:00:52.919Z,97.70
2022-09-23T07:05:56.952Z,97.80
2022-09-23T07:11:03.594Z,98.00
2022-09-23T07:16:07.552Z,97.70
2022-09-23T07:21:15.464Z,97.70
2022-09-23T07:26:22.872Z,97.70
2022-09-23T07:31:38.467Z,97.70
2022-09-23T07:36:43.576Z,97.80
2022-09-23T07:41:51.883Z,98.00
2022-09-23T07:46:55.619Z,97.90
2022-09-23T07:51:59.514Z,97.80
2022-09-23T07:57:04.647Z,97.80
2022-09-23T08:02:10.088Z,98.00
2022-09-23T08:07:14.528Z,97.80
2022-09-23T08:12:20.734Z,97.80
2022-09-23T08:17:24.412Z,97.80
2022-09-23T08:22:28.291Z,97.70
2022-09-23T08:27:33.481Z,97.60
2022-09-23T08:32:37.299Z,97.50
2022-09-23T08:37:40.932Z,97.60
2022-09-23T08:42:47.421Z,97.40
2022-09-23T08:47:56.341Z,97.30
2022-09-23T08:53:03.137Z,97.30
2022-09-23T08:58:28.002Z,97.10
2022-09-23T09:03:35.829Z,96.80
2022-09-23T09:08:40.107Z,96.60
2022-09-23T09:13:54.360Z,96.50
2022-09-23T09:19:01.276Z,96.60
2022-09-23T09:24:17.152Z,96.30
2022-09-23T09:29:36.790Z,96.10
2022-09-23T09:34:46.237Z,95.70
2022-09-23T09:39:50.793Z,95.30
2022-09-23T09:44:59.889Z,95.20
2022-09-23T09:50:07.614Z,95.10
2022-09-23T09:55:25.986Z,95.00
2022-09-23T10:00:46.219Z,94.80
2022-09-23T10:05:54.463Z,94.50
2022-09-23T10:11:04.438Z,94.40
2022-09-23T10:16:09.899Z,94.70
2022-09-23T10:21:16.063Z,94.20
2022-09-23T10:26:28.417Z,93.60
2022-09-23T10:31:35.832Z,92.80
2022-09-23T10:36:44.297Z,92.50
2022-09-23T10:42:18.422Z,92.90
2022-09-23T10:47:35.499Z,92.60
2022-09-23T10:52:50.110Z,92.30
2022-09-23T10:58:10.763Z,92.30
2022-09-23T11:03:56.864Z,91.90
2022-09-23T11:09:14.446Z,92.40
2022-09-23T11:14:30.734Z,92.20
2022-09-23T11:20:09.734Z,92.30
2022-09-23T11:25:33.718Z,91.40
2022-09-23T11:30:47.144Z,91.50
2022-09-23T11:35:58.799Z,91.10
2022-09-23T11:41:18.662Z,90.60
2022-09-23T11:46:34.044Z,91.00
2022-09-23T11:51:45.909Z,90.70
2022-09-23T11:56:54.502Z,90.10
2022-09-23T12:02:14.363Z,89.20
2022-09-23T12:07:27.053Z,89.20
2022-09-23T12:12:39.007Z,89.00
2022-09-23T12:17:55.699Z,87.20
2022-09-23T12:23:14.305Z,88.50
2022-09-23T12:28:21.247Z,88.60
2022-09-23T12:33:26.220Z,88.50
2022-09-23T12:38:36.300Z,89.60
2022-09-23T12:43:54.369Z,89.10
2022-09-23T12:49:03.677Z,89.60
2022-09-23T12:54:25.072Z,89.80
2022-09-23T12:59:31.019Z,88.70
2022-09-23T13:05:02.377Z,89.10
2022-09-23T13:10:16.582Z,89.10
2022-09-23T13:15:29.944Z,89.60
2022-09-23T13:20:38.458Z,89.70
2022-09-23T13:25:44.506Z,89.90
2022-09-23T13:30:52.297Z,90.00
2022-09-23T13:36:01.579Z,90.30
2022-09-23T13:41:12.014Z,90.50
2022-09-23T13:46:20.288Z,90.50
2022-09-23T13:51:30.202Z,90.60
2022-09-23T13:56:37.804Z,90.80
2022-09-23T14:01:42.748Z,91.00
2022-09-23T14:06:48.190Z,90.90
2022-09-23T14:11:54.398Z,91.20
2022-09-23T14:16:59.360Z,91.30
2022-09-23T14:22:03.201Z,91.70
2022-09-23T14:27:15.165Z,91.40
2022-09-23T14:32:23.221Z,91.90
2022-09-23T14:37:48.111Z,91.70
2022-09-23T14:42:58.492Z,91.90
2022-09-23T14:48:06.855Z,92.20
2022-09-23T14:53:37.187Z,92.30
2022-09-23T14:58:52.307Z,92.50
2022-09-23T15:03:58.506Z,92.60
2022-09-23T15:09:02.308Z,92.80
2022-09-23T15:14:36.159Z,93.50
2022-09-23T15:19:32.462Z,93.20
2022-09-23T15:24:47.329Z,93.40
2022-09-23T15:29:54.282Z,93.50
2022-09-23T15:34:58.652Z,93.40
2022-09-23T15:40:03.049Z,93.50
2022-09-23T15:45:14.271Z,93.80
2022-09-23T15:50:18.538Z,93.80
2022-09-23T15:55:24.692Z,94.00
2022-09-23T16:00:29.962Z,94.30
2022-09-23T16:05:40.889Z,94.30
2022-09-23T16:10:44.855Z,94.60
2022-09-23T16:15:50.125Z,94.80
2022-09-23T16:20:54.772Z,95.10
2022-09-23T16:25:58.896Z,95.30
2022-09-23T16:31:04.690Z,95.30
2022-09-23T16:36:13.511Z,95.50
2022-09-23T16:41:17.644Z,95.70
2022-09-23T16:46:23.904Z,95.90
2022-09-23T16:51:29.814Z,96.30
2022-09-23T16:56:33.504Z,96.20
2022-09-23T17:01:56.446Z,96.30
2022-09-23T17:07:00.441Z,96.50
2022-09-23T17:12:15.199Z,96.70
2022-09-23T17:17:20.276Z,96.90
2022-09-23T17:22:23.964Z,96.90
2022-09-23T17:27:27.771Z,97.10
2022-09-23T17:32:32.987Z,97.30
2022-09-23T17:37:36.747Z,97.50
2022-09-23T17:42:42.312Z,97.60
2022-09-23T17:47:51.265Z,97.80
2022-09-23T17:52:54.918Z,97.50
2022-09-23T17:57:58.839Z,97.90
2022-09-23T18:03:03.917Z,98.00
2022-09-23T18:08:07.635Z,98.70
2022-09-23T18:13:11.354Z,99.80
2022-09-23T18:18:16.552Z,99.70
2022-09-23T18:23:24.003Z,99.70
2022-09-23T18:28:34.652Z,99.90
2022-09-23T18:33:40.061Z,99.90
2022-09-23T18:38:43.801Z,99.90
2022-09-23T18:43:48.666Z,99.90
2022-09-23T18:49:11.869Z,99.90
2022-09-23T18:54:16.199Z,99.90
2022-09-23T18:59:21.523Z,99.90
2022-09-23T19:04:29.574Z,99.90
2022-09-23T19:09:35.788Z,99.90
2022-09-23T19:14:44.803Z,99.90
2022-09-23T19:19:50.062Z,99.90
2022-09-23T19:24:53.828Z,99.90
2022-09-23T19:29:57.807Z,99.90
2022-09-23T19:35:03.268Z,99.90
2022-09-23T19:40:08.703Z,99.90
2022-09-23T19:45:12.470Z,99.90
2022-09-23T19:50:19.099Z,99.90
2022-09-23T19:55:22.722Z,99.90
2022-09-23T20:00:26.634Z,99.90
2022-09-23T20:05:31.656Z,99.90
2022-09-23T20:10:35.380Z,99.90
2022-09-23T20:15:39.057Z,99.90
2022-09-23T20:20:44.178Z,99.90
2022-09-23T20:26:14.132Z,99.90
2022-09-23T20:31:20.926Z,99.90
2022-09-23T20:36:26.634Z,99.90
2022-09-23T20:41:33.400Z,99.90
2022-09-23T20:46:37.101Z,99.90
2022-09-23T20:51:42.332Z,99.90
2022-09-23T20:56:46.070Z,99.90
2022-09-23T21:01:53.590Z,99.90
2022-09-23T21:06:59.456Z,99.90
2022-09-23T21:12:03.605Z,99.90
2022-09-23T21:17:07.268Z,99.90
2022-09-23T21:22:12.429Z,99.90
2022-09-23T21:27:16.208Z,99.90
2022-09-23T21:32:19.850Z,99.90
2022-09-23T21:37:25.488Z,99.90
2022-09-23T21:42:29.161Z,99.90
2022-09-23T21:47:32.864Z,99.90
2022-09-23T21:52:39.144Z,99.90
2022-09-23T21:57:44.133Z,99.90
2022-09-23T22:02:47.768Z,99.90
2022-09-23T22:07:54.200Z,99.90
2022-09-23T22:12:58.981Z,99.90
2022-09-23T22:18:02.878Z,99.90
2022-09-23T22:23:08.280Z,99.90
2022-09-23T22:28:29.236Z,99.90
2022-09-23T22:33:32.915Z,99.90
2022-09-23T22:38:38.587Z,99.90
2022-09-23T22:43:42.399Z,99.90
2022-09-23T22:48:46.305Z,99.90
2022-09-23T22:53:52.478Z,99.90
2022-09-23T22:58:56.860Z,99.90
2022-09-23T23:04:01.560Z,99.90
2022-09-23T23:09:09.989Z,99.90
2022-09-23T23:14:15.269Z,99.90
2022-09-23T23:19:19.392Z,99.90
2022-09-23T23:24:25.571Z,99.90
2022-09-23T23:29:29.330Z,99.90
2022-09-23T23:34:33.051Z,99.90
2022-09-23T23:39:38.078Z,99.90
2022-09-23T23:44:41.829Z,99.90
2022-09-23T23:49:45.465Z,99.90
2022-09-23T23:54:51.663Z,99.90
2022-09-23T23:59:55.510Z,99.90
